createdAt,value
2018-02-08T05:00:48.880Z,0
2018-02-08T05:01:14.398Z,0
2018-02-08T05:01:39.893Z,0
2018-02-08T05:02:05.397Z,0
2018-02-08T05:02:30.896Z,0
2018-02-08T05:02:56.405Z,0
2018-02-08T05:03:21.854Z,0
2018-02-08T05:03:47.346Z,0
2018-02-08T05:04:12.847Z,0
2018-02-08T05:04:38.324Z,0
2018-02-08T05:05:03.803Z,0
2018-02-08T05:05:29.336Z,0
2018-02-08T05:06:32.943Z,0
2018-02-08T05:06:58.425Z,0
2018-02-08T05:07:23.927Z,0
2018-02-08T05:07:49.477Z,0
2018-02-08T05:08:14.903Z,0
2018-02-08T05:08:40.408Z,0
2018-02-08T05:09:54.484Z,0
2018-02-08T05:10:20.014Z,0
2018-02-08T05:10:45.527Z,0
2018-02-08T05:11:10.997Z,0
2018-02-08T05:11:36.489Z,0
2018-02-08T05:12:01.958Z,0
2018-02-08T05:12:27.438Z,0
2018-02-08T05:12:52.898Z,0
2018-02-08T05:13:18.388Z,0
2018-02-08T05:13:43.902Z,0
2018-02-08T05:14:09.386Z,0
2018-02-08T05:14:34.846Z,0
2018-02-08T05:15:00.339Z,0
2018-02-08T05:15:25.876Z,0
2018-02-08T05:16:29.369Z,0
2018-02-08T05:16:54.855Z,0
2018-02-08T05:17:20.348Z,0
2018-02-08T05:17:45.886Z,0
2018-02-08T05:18:11.369Z,0
2018-02-08T05:18:36.840Z,0
2018-02-08T05:19:02.303Z,0
2018-02-08T05:19:27.782Z,0
2018-02-08T05:19:53.247Z,0
2018-02-08T05:20:18.847Z,0
2018-02-08T05:20:44.373Z,0
2018-02-08T05:21:09.848Z,0
2018-02-08T05:21:35.332Z,0
2018-02-08T05:22:00.879Z,0
2018-02-08T05:22:26.379Z,0
2018-02-08T05:22:51.981Z,0
2018-02-08T05:23:17.392Z,0
2018-02-08T05:23:42.890Z,0
2018-02-08T05:24:08.692Z,0
2018-02-08T05:24:34.201Z,0
2018-02-08T05:24:59.562Z,0
2018-02-08T05:25:25.054Z,0
2018-02-08T05:25:50.534Z,0
2018-02-08T05:26:16.018Z,0
2018-02-08T05:26:41.505Z,0
2018-02-08T05:27:07.027Z,0
2018-02-08T05:27:32.498Z,0
2018-02-08T05:27:58.004Z,0
2018-02-08T05:28:23.504Z,0
2018-02-08T05:28:48.973Z,0
2018-02-08T05:29:14.497Z,0
2018-02-08T05:29:40.036Z,0
2018-02-08T05:30:05.495Z,0
2018-02-08T05:30:30.997Z,0
2018-02-08T05:30:56.474Z,0
2018-02-08T05:31:21.924Z,0
2018-02-08T05:31:47.407Z,0
2018-02-08T05:32:12.907Z,0
2018-02-08T05:32:38.517Z,0
2018-02-08T05:33:04.101Z,0
2018-02-08T05:33:29.592Z,0
2018-02-08T05:33:55.075Z,0
2018-02-08T05:34:20.588Z,0
2018-02-08T05:34:46.078Z,0
2018-02-08T05:35:11.549Z,0
2018-02-08T05:35:37.043Z,0
2018-02-08T05:36:02.538Z,0
2018-02-08T05:36:28.027Z,0
2018-02-08T05:36:53.522Z,0
2018-02-08T05:37:19.004Z,0
2018-02-08T05:38:43.027Z,0
2018-02-08T05:39:08.543Z,0
2018-02-08T05:39:34.036Z,0
2018-02-08T05:39:59.534Z,0
2018-02-08T05:40:24.988Z,0
2018-02-08T05:40:50.485Z,0
2018-02-08T05:41:15.949Z,0
2018-02-08T05:41:41.429Z,0
2018-02-08T05:42:06.925Z,0
2018-02-08T05:42:32.415Z,0
2018-02-08T05:42:57.945Z,0
2018-02-08T05:43:23.417Z,0
2018-02-08T05:43:48.906Z,0
2018-02-08T05:44:14.374Z,0
2018-02-08T05:44:39.932Z,0
2018-02-08T05:45:05.455Z,0
2018-02-08T05:45:30.961Z,0
2018-02-08T05:46:44.245Z,0
2018-02-08T05:47:09.810Z,0
2018-02-08T05:47:35.292Z,0
2018-02-08T05:48:00.786Z,0
2018-02-08T05:48:26.256Z,0
2018-02-08T05:49:40.040Z,0
2018-02-08T05:50:05.524Z,0
2018-02-08T05:50:31.013Z,0
2018-02-08T05:50:56.560Z,0
2018-02-08T05:51:22.695Z,0
2018-02-08T05:51:48.170Z,0
2018-02-08T05:52:13.717Z,0
2018-02-08T05:52:39.279Z,0
2018-02-08T05:53:04.741Z,0
2018-02-08T05:53:30.201Z,0
2018-02-08T05:53:55.771Z,0
2018-02-08T05:54:21.315Z,0
2018-02-08T05:54:46.827Z,0
2018-02-08T05:55:12.329Z,0
2018-02-08T05:55:37.797Z,0
2018-02-08T05:56:03.437Z,0
2018-02-08T05:57:22.542Z,0
2018-02-08T05:57:48.241Z,0
2018-02-08T05:58:13.669Z,0
2018-02-08T05:58:39.132Z,0
2018-02-08T05:59:04.698Z,0
2018-02-08T05:59:30.191Z,0
2018-02-08T05:59:55.735Z,0
2018-02-08T06:00:21.545Z,0
2018-02-08T06:00:47.016Z,0
2018-02-08T06:01:12.485Z,0
2018-02-08T06:01:37.952Z,0
2018-02-08T06:02:03.510Z,0
2018-02-08T06:02:28.990Z,0
2018-02-08T06:02:54.429Z,0
2018-02-08T06:03:19.917Z,0
2018-02-08T06:03:45.369Z,0
2018-02-08T06:04:10.824Z,0
2018-02-08T06:04:36.351Z,0
2018-02-08T06:05:02.130Z,0
2018-02-08T06:05:27.615Z,0
2018-02-08T06:05:53.077Z,0
2018-02-08T06:06:18.574Z,0
2018-02-08T06:06:44.138Z,0
2018-02-08T06:07:09.552Z,0
2018-02-08T06:07:35.014Z,0
2018-02-08T06:08:00.506Z,0
2018-02-08T06:08:25.963Z,0
2018-02-08T06:08:51.523Z,0
2018-02-08T06:09:17.018Z,0
2018-02-08T06:09:42.472Z,0
2018-02-08T06:10:07.986Z,0
2018-02-08T06:10:33.608Z,0
2018-02-08T06:10:59.093Z,0
2018-02-08T06:11:24.600Z,0
2018-02-08T06:11:50.037Z,0
2018-02-08T06:12:15.582Z,0
2018-02-08T06:12:41.114Z,0
2018-02-08T06:13:06.562Z,0
2018-02-08T06:13:32.067Z,0
2018-02-08T06:13:57.553Z,0
2018-02-08T06:14:23.032Z,0
2018-02-08T06:14:48.620Z,0
2018-02-08T06:15:14.550Z,0
2018-02-08T06:15:40.000Z,0
2018-02-08T06:16:05.481Z,0
2018-02-08T06:16:30.982Z,0
2018-02-08T06:16:56.422Z,0
2018-02-08T06:17:21.855Z,0
2018-02-08T06:17:47.342Z,0
2018-02-08T06:18:12.845Z,0
2018-02-08T06:18:38.296Z,0
2018-02-08T06:19:03.976Z,0
2018-02-08T06:19:29.702Z,0
2018-02-08T06:19:55.164Z,0
2018-02-08T06:20:20.602Z,0
2018-02-08T06:20:46.091Z,0
2018-02-08T06:21:11.614Z,0
2018-02-08T06:21:37.191Z,0
2018-02-08T06:22:02.724Z,0
2018-02-08T06:22:28.193Z,0
2018-02-08T06:22:53.682Z,0
2018-02-08T06:23:19.161Z,0
2018-02-08T06:23:44.687Z,0
2018-02-08T06:24:10.200Z,0
2018-02-08T06:24:35.748Z,0
2018-02-08T06:25:01.190Z,0
2018-02-08T06:25:26.662Z,4
2018-02-08T06:25:52.173Z,4
2018-02-08T06:26:17.642Z,4
2018-02-08T06:26:43.090Z,4
2018-02-08T06:27:08.616Z,4
2018-02-08T06:27:34.100Z,4
2018-02-08T06:27:59.566Z,0
2018-02-08T06:29:23.598Z,4
2018-02-08T06:29:49.090Z,4
2018-02-08T06:30:14.588Z,4
2018-02-08T06:30:40.067Z,4
2018-02-08T06:31:05.543Z,4
2018-02-08T06:31:31.083Z,4
2018-02-08T06:31:56.541Z,4
2018-02-08T06:32:22.065Z,8
2018-02-08T06:32:47.760Z,4
2018-02-08T06:33:13.262Z,8
2018-02-08T06:33:38.798Z,8
2018-02-08T06:34:04.274Z,8
2018-02-08T06:34:29.746Z,8
2018-02-08T06:34:55.225Z,12
2018-02-08T06:35:20.703Z,8
2018-02-08T06:35:46.233Z,12
2018-02-08T06:36:11.724Z,8
2018-02-08T06:37:16.180Z,12
2018-02-08T06:37:41.672Z,12
2018-02-08T06:38:07.191Z,12
2018-02-08T06:38:32.654Z,16
2018-02-08T06:38:58.096Z,16
2018-02-08T06:39:23.559Z,16
2018-02-08T06:39:49.059Z,16
2018-02-08T06:40:14.557Z,20
2018-02-08T06:40:39.986Z,20
2018-02-08T06:41:05.573Z,20
2018-02-08T06:41:31.047Z,24
2018-02-08T06:41:56.523Z,28
2018-02-08T06:42:22.000Z,24
2018-02-08T06:42:47.611Z,28
2018-02-08T06:43:13.069Z,32
2018-02-08T06:43:38.532Z,32
2018-02-08T06:44:03.980Z,32
2018-02-08T06:44:29.453Z,36
2018-02-08T06:44:54.945Z,36
2018-02-08T06:45:20.406Z,40
2018-02-08T06:45:45.869Z,40
2018-02-08T06:46:11.334Z,44
2018-02-08T06:46:36.825Z,48
2018-02-08T06:47:02.325Z,48
2018-02-08T06:47:27.883Z,52
2018-02-08T06:47:53.333Z,56
2018-02-08T06:48:18.820Z,60
2018-02-08T06:48:44.338Z,64
2018-02-08T06:49:09.788Z,64
2018-02-08T06:49:35.300Z,68
2018-02-08T06:50:00.775Z,72
2018-02-08T06:50:26.253Z,76
2018-02-08T06:50:51.707Z,80
2018-02-08T06:51:17.188Z,84
2018-02-08T06:51:42.681Z,92
2018-02-08T06:52:08.144Z,92
2018-02-08T06:52:33.710Z,96
2018-02-08T06:52:59.198Z,100
2018-02-08T06:54:23.238Z,120
2018-02-08T06:54:48.723Z,124
2018-02-08T06:55:14.185Z,132
2018-02-08T06:55:39.657Z,136
2018-02-08T06:56:05.162Z,144
2018-02-08T06:56:30.658Z,152
2018-02-08T06:56:56.238Z,156
2018-02-08T06:57:21.793Z,164
2018-02-08T06:57:47.265Z,172
2018-02-08T06:58:12.764Z,180
2018-02-08T06:58:38.234Z,188
2018-02-08T06:59:03.703Z,196
2018-02-08T06:59:29.191Z,204
2018-02-08T06:59:54.697Z,208
2018-02-08T07:00:20.191Z,220
2018-02-08T07:00:45.680Z,224
2018-02-08T07:01:11.160Z,232
2018-02-08T07:01:36.640Z,244
2018-02-08T07:02:50.427Z,272
2018-02-08T07:03:15.914Z,280
2018-02-08T07:03:41.411Z,288
2018-02-08T07:04:06.899Z,300
2018-02-08T07:04:32.376Z,304
2018-02-08T07:04:57.893Z,316
2018-02-08T07:05:23.370Z,324
2018-02-08T07:05:48.830Z,332
2018-02-08T07:06:14.299Z,344
2018-02-08T07:06:39.788Z,360
2018-02-08T07:08:03.797Z,392
2018-02-08T07:08:29.293Z,404
2018-02-08T07:08:54.794Z,416
2018-02-08T07:10:13.705Z,448
2018-02-08T07:10:39.164Z,464
2018-02-08T07:11:04.638Z,472
2018-02-08T07:11:30.123Z,484
2018-02-08T07:11:55.609Z,496
2018-02-08T07:12:21.071Z,508
2018-02-08T07:12:46.553Z,520
2018-02-08T07:14:10.092Z,552
2018-02-08T07:14:35.587Z,564
2018-02-08T07:15:01.055Z,576
2018-02-08T07:15:26.493Z,592
2018-02-08T07:15:51.973Z,600
2018-02-08T07:16:17.467Z,608
2018-02-08T07:16:42.930Z,620
2018-02-08T07:17:51.099Z,644
2018-02-08T07:18:16.571Z,656
2018-02-08T07:18:42.066Z,668
2018-02-08T07:19:07.563Z,684
2018-02-08T07:19:33.037Z,704
2018-02-08T07:20:36.155Z,744
2018-02-08T07:21:01.658Z,756
2018-02-08T07:21:27.149Z,772
2018-02-08T07:21:52.607Z,788
2018-02-08T07:22:18.070Z,804
2018-02-08T07:22:43.647Z,820
2018-02-08T07:23:09.107Z,836
2018-02-08T07:23:34.630Z,848
2018-02-08T07:24:00.124Z,864
2018-02-08T07:24:25.626Z,884
2018-02-08T07:24:51.113Z,896
2018-02-08T07:25:16.603Z,916
2018-02-08T07:25:42.072Z,932
2018-02-08T07:26:07.599Z,948
2018-02-08T07:26:33.058Z,964
2018-02-08T07:26:58.532Z,980
2018-02-08T07:27:23.999Z,988
2018-02-08T07:27:49.453Z,1000
2018-02-08T07:28:14.942Z,1008
2018-02-08T07:28:40.429Z,1016
2018-02-08T07:29:05.903Z,1028
2018-02-08T07:29:31.394Z,1036
2018-02-08T07:29:56.922Z,1048
2018-02-08T07:30:22.380Z,1064
2018-02-08T07:30:47.875Z,1076
2018-02-08T07:31:13.367Z,1092
2018-02-08T07:31:38.835Z,1104
2018-02-08T07:32:52.635Z,1128
2018-02-08T07:33:18.112Z,1140
2018-02-08T07:33:43.614Z,1144
2018-02-08T07:34:09.124Z,1152
2018-02-08T07:34:34.606Z,1160
2018-02-08T07:35:00.085Z,1172
2018-02-08T07:35:25.574Z,1184
2018-02-08T07:35:51.059Z,1192
2018-02-08T07:36:16.596Z,1208
2018-02-08T07:36:42.088Z,1216
2018-02-08T07:37:07.545Z,1228
2018-02-08T07:37:33.053Z,1236
2018-02-08T07:38:46.827Z,1264
2018-02-08T07:39:12.322Z,1280
2018-02-08T07:39:37.805Z,1292
2018-02-08T07:40:03.290Z,1304
2018-02-08T07:40:28.773Z,1316
2018-02-08T07:40:54.294Z,1328
2018-02-08T07:41:19.824Z,1344
2018-02-08T07:41:45.274Z,1356
2018-02-08T07:42:10.758Z,1368
2018-02-08T07:42:36.276Z,1384
2018-02-08T07:43:01.769Z,1396
2018-02-08T07:43:27.244Z,1408
2018-02-08T07:43:52.720Z,1424
2018-02-08T07:44:18.186Z,1436
2018-02-08T07:44:43.683Z,1448
2018-02-08T07:45:09.199Z,1464
2018-02-08T07:45:34.675Z,1472
2018-02-08T07:46:00.177Z,1484
2018-02-08T07:46:25.668Z,1496
2018-02-08T07:46:51.195Z,1508
2018-02-08T07:47:16.700Z,1516
2018-02-08T07:47:42.165Z,1528
2018-02-08T07:48:07.618Z,1536
2018-02-08T07:48:33.155Z,1544
2018-02-08T07:48:58.641Z,1556
2018-02-08T07:49:24.099Z,1564
2018-02-08T07:49:49.592Z,1580
2018-02-08T07:50:15.035Z,1588
2018-02-08T07:50:40.545Z,1596
2018-02-08T07:51:06.025Z,1600
2018-02-08T07:52:24.933Z,1620
2018-02-08T07:52:50.427Z,1624
2018-02-08T07:53:59.161Z,1644
2018-02-08T07:54:24.611Z,1652
2018-02-08T07:54:50.096Z,1668
2018-02-08T07:55:15.566Z,1688
2018-02-08T07:55:41.022Z,1704
2018-02-08T07:56:06.494Z,1720
2018-02-08T07:56:32.017Z,1744
2018-02-08T07:56:57.480Z,1764
2018-02-08T07:57:22.972Z,1792
2018-02-08T07:57:48.444Z,1816
2018-02-08T07:58:13.988Z,1836
2018-02-08T07:58:39.468Z,1860
2018-02-08T07:59:04.956Z,1888
2018-02-08T07:59:30.439Z,1912
2018-02-08T07:59:55.964Z,1944
2018-02-08T08:00:21.431Z,1980
2018-02-08T08:00:46.899Z,2008
2018-02-08T08:01:12.373Z,2048
2018-02-08T08:01:37.877Z,2084
2018-02-08T08:02:03.411Z,2132
2018-02-08T08:02:28.879Z,2180
2018-02-08T08:02:54.334Z,2220
2018-02-08T08:03:19.806Z,2264
2018-02-08T08:04:38.800Z,2388
2018-02-08T08:05:04.313Z,2420
2018-02-08T08:05:29.806Z,2460
2018-02-08T08:05:55.328Z,2500
2018-02-08T08:07:09.105Z,2608
2018-02-08T08:07:34.604Z,2636
2018-02-08T08:08:00.072Z,2664
2018-02-08T08:08:25.575Z,2692
2018-02-08T08:08:51.084Z,2720
2018-02-08T08:09:16.542Z,2744
2018-02-08T08:09:42.055Z,2772
2018-02-08T08:10:07.604Z,2796
2018-02-08T08:10:33.098Z,2824
2018-02-08T08:10:58.594Z,2844
2018-02-08T08:11:24.094Z,2864
2018-02-08T08:11:49.620Z,2884
2018-02-08T08:12:15.091Z,2908
2018-02-08T08:12:40.570Z,2928
2018-02-08T08:13:44.182Z,2944
2018-02-08T08:14:09.708Z,2944
2018-02-08T08:14:35.193Z,2964
2018-02-08T08:15:00.684Z,2988
2018-02-08T08:15:26.153Z,3020
2018-02-08T08:15:51.642Z,3056
2018-02-08T08:16:17.155Z,3092
2018-02-08T08:16:42.653Z,3136
2018-02-08T08:18:06.673Z,3184
2018-02-08T08:18:32.161Z,3196
2018-02-08T08:18:57.647Z,3224
2018-02-08T08:19:23.159Z,3268
2018-02-08T08:19:48.626Z,3324
2018-02-08T08:20:14.120Z,3388
2018-02-08T08:20:39.589Z,3464
2018-02-08T08:21:05.085Z,3532
2018-02-08T08:21:30.600Z,3604
2018-02-08T08:21:56.078Z,3640
2018-02-08T08:22:21.576Z,3668
2018-02-08T08:22:47.040Z,3672
2018-02-08T08:23:12.529Z,3664
2018-02-08T08:23:38.021Z,3656
2018-02-08T08:24:03.514Z,3640
2018-02-08T08:25:12.241Z,3568
2018-02-08T08:25:37.777Z,3556
2018-02-08T08:26:03.271Z,3532
2018-02-08T08:27:17.057Z,3556
2018-02-08T08:27:42.545Z,3588
2018-02-08T08:28:08.061Z,3660
2018-02-08T08:28:33.542Z,3716
2018-02-08T08:28:59.034Z,3792
2018-02-08T08:29:24.510Z,3876
2018-02-08T08:29:49.997Z,3940
2018-02-08T08:30:15.458Z,3992
2018-02-08T08:30:41.005Z,4044
2018-02-08T08:31:06.449Z,4092
2018-02-08T08:31:31.952Z,4140
2018-02-08T08:31:57.412Z,4164
2018-02-08T08:32:22.894Z,4176
2018-02-08T08:32:48.429Z,4176
2018-02-08T08:33:13.879Z,4176
2018-02-08T08:33:39.401Z,4152
2018-02-08T08:34:04.903Z,4120
2018-02-08T08:34:30.431Z,4088
2018-02-08T08:34:55.887Z,4068
2018-02-08T08:35:21.362Z,4052
2018-02-08T08:35:46.816Z,4048
2018-02-08T08:36:55.526Z,4008
2018-02-08T08:37:21.018Z,3972
2018-02-08T08:37:46.500Z,3940
2018-02-08T08:38:11.954Z,3908
2018-02-08T08:38:37.432Z,3876
2018-02-08T08:39:02.947Z,3824
2018-02-08T08:39:28.484Z,3780
2018-02-08T08:40:32.106Z,3676
2018-02-08T08:40:57.609Z,3624
2018-02-08T08:41:23.121Z,3632
2018-02-08T08:41:48.564Z,3684
2018-02-08T08:42:14.036Z,3740
2018-02-08T08:42:39.539Z,3776
2018-02-08T08:43:04.998Z,3804
2018-02-08T08:43:30.487Z,3788
2018-02-08T08:43:55.989Z,3744
2018-02-08T08:44:21.472Z,3740
2018-02-08T08:44:46.943Z,3732
2018-02-08T08:45:12.454Z,3732
2018-02-08T08:45:37.928Z,3776
2018-02-08T08:46:03.408Z,3828
2018-02-08T08:46:28.871Z,3876
2018-02-08T08:46:54.341Z,3884
2018-02-08T08:47:19.858Z,3864
2018-02-08T08:47:45.327Z,3824
2018-02-08T08:48:10.805Z,3808
2018-02-08T08:49:34.817Z,3700
2018-02-08T08:50:00.316Z,3644
2018-02-08T08:50:25.797Z,3620
2018-02-08T08:50:51.294Z,3588
2018-02-08T08:51:16.921Z,3548
2018-02-08T08:51:42.409Z,3508
2018-02-08T08:52:07.907Z,3480
2018-02-08T08:52:33.358Z,3460
2018-02-08T08:52:58.885Z,3420
2018-02-08T08:53:24.362Z,3364
2018-02-08T08:53:49.861Z,3324
2018-02-08T08:54:15.359Z,3272
2018-02-08T08:54:40.824Z,3196
2018-02-08T08:55:06.332Z,3084
2018-02-08T08:55:31.846Z,3012
2018-02-08T08:55:57.360Z,2948
2018-02-08T08:56:23.084Z,2880
2018-02-08T08:56:48.824Z,2800
2018-02-08T08:57:14.297Z,2744
2018-02-08T08:57:39.814Z,2672
2018-02-08T08:58:05.294Z,2636
2018-02-08T08:58:30.781Z,2636
2018-02-08T08:58:56.286Z,2660
2018-02-08T08:59:21.733Z,2708
2018-02-08T08:59:47.234Z,2784
2018-02-08T09:00:12.721Z,2840
2018-02-08T09:00:38.182Z,2856
2018-02-08T09:01:03.649Z,2852
2018-02-08T09:01:29.162Z,2796
2018-02-08T09:01:54.638Z,2736
2018-02-08T09:02:20.172Z,2700
2018-02-08T09:02:45.594Z,2656
2018-02-08T09:03:11.069Z,2616
2018-02-08T09:03:36.579Z,2600
2018-02-08T09:04:02.033Z,2588
2018-02-08T09:04:27.558Z,2580
2018-02-08T09:04:53.007Z,2568
2018-02-08T09:05:18.470Z,2548
2018-02-08T09:05:43.955Z,2544
2018-02-08T09:06:52.641Z,2496
2018-02-08T09:07:18.113Z,2444
2018-02-08T09:07:43.606Z,2408
2018-02-08T09:08:09.114Z,2392
2018-02-08T09:08:34.576Z,2372
2018-02-08T09:09:00.054Z,2340
2018-02-08T09:09:25.546Z,2324
2018-02-08T09:09:51.052Z,2336
2018-02-08T09:11:15.072Z,2480
2018-02-08T09:11:40.638Z,2520
2018-02-08T09:12:06.161Z,2556
2018-02-08T09:12:31.614Z,2560
2018-02-08T09:12:57.132Z,2548
2018-02-08T09:13:22.665Z,2572
2018-02-08T09:13:48.154Z,2640
2018-02-08T09:14:13.633Z,2648
2018-02-08T09:14:39.148Z,2552
2018-02-08T09:15:04.631Z,2488
2018-02-08T09:15:30.102Z,2412
2018-02-08T09:15:55.570Z,2352
2018-02-08T09:16:21.052Z,2304
2018-02-08T09:16:46.524Z,2240
2018-02-08T09:17:11.997Z,2216
2018-02-08T09:17:37.517Z,2172
2018-02-08T09:18:02.949Z,2148
2018-02-08T09:18:28.464Z,2160
2018-02-08T09:18:53.937Z,2132
2018-02-08T09:19:19.446Z,2100
2018-02-08T09:19:44.968Z,2096
2018-02-08T09:20:10.455Z,2104
2018-02-08T09:20:35.935Z,2120
2018-02-08T09:21:01.418Z,2092
2018-02-08T09:21:26.881Z,2028
2018-02-08T09:21:52.372Z,1976
2018-02-08T09:22:17.867Z,1956
2018-02-08T09:22:43.364Z,1960
2018-02-08T09:23:08.880Z,1956
2018-02-08T09:23:34.353Z,1964
2018-02-08T09:23:59.849Z,1964
2018-02-08T09:24:25.347Z,1984
2018-02-08T09:24:50.825Z,1968
2018-02-08T09:25:16.321Z,1960
2018-02-08T09:25:41.840Z,1976
2018-02-08T09:26:07.313Z,1976
2018-02-08T09:26:32.799Z,1976
2018-02-08T09:26:58.250Z,1968
2018-02-08T09:27:23.793Z,1988
2018-02-08T09:27:49.304Z,1996
2018-02-08T09:28:14.785Z,2024
2018-02-08T09:28:40.274Z,2040
2018-02-08T09:29:05.729Z,2060
2018-02-08T09:29:31.241Z,2052
2018-02-08T09:29:56.759Z,2044
2018-02-08T09:30:22.238Z,2036
2018-02-08T09:30:47.719Z,2036
2018-02-08T09:31:13.218Z,2044
2018-02-08T09:32:21.928Z,2100
2018-02-08T09:32:47.393Z,2148
2018-02-08T09:33:12.878Z,2184
2018-02-08T09:33:38.419Z,2164
2018-02-08T09:34:03.909Z,2144
2018-02-08T09:34:29.413Z,2176
2018-02-08T09:34:54.888Z,2212
2018-02-08T09:35:20.364Z,2308
2018-02-08T09:35:45.825Z,2532
2018-02-08T09:36:11.296Z,2644
2018-02-08T09:36:36.816Z,2648
2018-02-08T09:37:02.305Z,2740
2018-02-08T09:37:27.744Z,2728
2018-02-08T09:37:53.252Z,2696
2018-02-08T09:38:18.738Z,2656
2018-02-08T09:38:44.236Z,2580
2018-02-08T09:39:09.720Z,2500
2018-02-08T09:39:35.207Z,2424
2018-02-08T09:40:38.793Z,2224
2018-02-08T09:41:04.288Z,2136
2018-02-08T09:41:29.769Z,2044
2018-02-08T09:41:55.259Z,2032
2018-02-08T09:42:20.723Z,2044
2018-02-08T09:42:46.262Z,2080
2018-02-08T09:43:11.745Z,2120
2018-02-08T09:43:37.256Z,2156
2018-02-08T09:44:02.737Z,2212
2018-02-08T09:44:28.234Z,2288
2018-02-08T09:44:53.709Z,2376
2018-02-08T09:45:19.191Z,2544
2018-02-08T09:46:22.837Z,2860
2018-02-08T09:46:48.324Z,2920
2018-02-08T09:47:13.800Z,2920
2018-02-08T09:47:39.284Z,2928
2018-02-08T09:48:04.764Z,2928
2018-02-08T09:48:30.294Z,2924
2018-02-08T09:48:55.767Z,2916
2018-02-08T09:49:59.370Z,2916
2018-02-08T09:50:24.867Z,2916
2018-02-08T09:50:50.358Z,2908
2018-02-08T09:51:15.894Z,2908
2018-02-08T09:51:41.381Z,2904
2018-02-08T09:52:06.881Z,2900
2018-02-08T09:52:32.395Z,2900
2018-02-08T09:52:57.902Z,2904
2018-02-08T09:53:23.400Z,2904
2018-02-08T09:54:42.276Z,2892
2018-02-08T09:55:07.799Z,2884
2018-02-08T09:55:33.294Z,2884
2018-02-08T09:55:58.743Z,2892
2018-02-08T09:56:24.210Z,2892
2018-02-08T09:56:49.668Z,2892
2018-02-08T09:57:15.134Z,2888
2018-02-08T09:57:40.614Z,2892
2018-02-08T09:58:06.062Z,2892
2018-02-08T09:58:31.522Z,2892
2018-02-08T09:58:57.000Z,2888
2018-02-08T09:59:22.451Z,2888
2018-02-08T09:59:47.969Z,2892
2018-02-08T10:00:13.407Z,2900
2018-02-08T10:00:38.875Z,2904
2018-02-08T10:01:04.398Z,2908
2018-02-08T10:01:29.866Z,2912
2018-02-08T10:01:55.322Z,2916
2018-02-08T10:03:04.072Z,2924
2018-02-08T10:03:29.562Z,2920
2018-02-08T10:03:55.033Z,2920
2018-02-08T10:04:20.525Z,2916
2018-02-08T10:04:45.978Z,2916
2018-02-08T10:05:11.441Z,2904
2018-02-08T10:05:36.925Z,2900
2018-02-08T10:06:02.373Z,2892
2018-02-08T10:06:27.873Z,2884
2018-02-08T10:06:53.311Z,2888
2018-02-08T10:07:18.815Z,2880
2018-02-08T10:07:44.269Z,2876
2018-02-08T10:09:09.236Z,2872
2018-02-08T10:09:34.758Z,2872
2018-02-08T10:10:00.323Z,2876
2018-02-08T10:10:25.778Z,2868
2018-02-08T10:10:51.250Z,2856
2018-02-08T10:11:16.731Z,2848
2018-02-08T10:11:42.241Z,2836
2018-02-08T10:12:07.748Z,2832
2018-02-08T10:12:33.283Z,2824
2018-02-08T10:12:58.781Z,2808
2018-02-08T10:13:24.241Z,2792
2018-02-08T10:13:49.689Z,2808
2018-02-08T10:14:15.163Z,2840
2018-02-08T10:14:40.623Z,2852
2018-02-08T10:15:06.128Z,2860
2018-02-08T10:15:31.641Z,2864
2018-02-08T10:15:57.064Z,2864
2018-02-08T10:16:22.552Z,2916
2018-02-08T10:16:48.016Z,2852
2018-02-08T10:17:13.484Z,2848
2018-02-08T10:17:38.975Z,2848
2018-02-08T10:18:04.415Z,2852
2018-02-08T10:18:29.903Z,2852
2018-02-08T10:18:55.338Z,2852
2018-02-08T10:19:20.807Z,2852
2018-02-08T10:19:46.305Z,2856
2018-02-08T10:20:11.787Z,2856
2018-02-08T10:20:37.243Z,2860
2018-02-08T10:21:02.688Z,2852
2018-02-08T10:21:28.177Z,2856
2018-02-08T10:21:53.608Z,2860
2018-02-08T10:22:19.096Z,2856
2018-02-08T10:22:44.556Z,2856
2018-02-08T10:23:10.013Z,2852
2018-02-08T10:23:35.512Z,2848
2018-02-08T10:24:00.982Z,2844
2018-02-08T10:24:26.405Z,2844
2018-02-08T10:24:51.885Z,2844
2018-02-08T10:25:17.378Z,2844
2018-02-08T10:25:42.853Z,2840
2018-02-08T10:26:08.267Z,2824
2018-02-08T10:26:33.712Z,2808
2018-02-08T10:26:59.136Z,2784
2018-02-08T10:27:24.662Z,2752
2018-02-08T10:27:50.143Z,2680
2018-02-08T10:28:15.587Z,2664
2018-02-08T10:28:41.048Z,2688
2018-02-08T10:29:06.515Z,2700
2018-02-08T10:29:31.932Z,2696
2018-02-08T10:29:57.433Z,2688
2018-02-08T10:30:22.837Z,2688
2018-02-08T10:30:48.385Z,2696
2018-02-08T10:31:13.845Z,2724
2018-02-08T10:31:39.268Z,2752
2018-02-08T10:32:04.770Z,2764
2018-02-08T10:32:30.253Z,2780
2018-02-08T10:32:55.716Z,2788
2018-02-08T10:33:21.304Z,2792
2018-02-08T10:34:24.950Z,2764
2018-02-08T10:34:50.452Z,2736
2018-02-08T10:35:15.945Z,2704
2018-02-08T10:35:41.420Z,2672
2018-02-08T10:36:06.875Z,2640
2018-02-08T10:36:32.466Z,2620
2018-02-08T10:36:58.071Z,2648
2018-02-08T10:37:23.580Z,2708
2018-02-08T10:37:49.116Z,2740
2018-02-08T10:38:14.739Z,2740
2018-02-08T10:38:40.206Z,2736
2018-02-08T10:39:05.777Z,2732
2018-02-08T10:39:31.296Z,2728
2018-02-08T10:39:56.770Z,2724
2018-02-08T10:40:22.381Z,2720
2018-02-08T10:40:47.773Z,2720
2018-02-08T10:41:13.227Z,2724
2018-02-08T10:41:38.684Z,2732
2018-02-08T10:42:04.244Z,2740
2018-02-08T10:42:29.745Z,2748
2018-02-08T10:42:55.210Z,2744
2018-02-08T10:43:20.661Z,2744
2018-02-08T10:43:46.117Z,2740
2018-02-08T10:44:11.583Z,2740
2018-02-08T10:44:37.017Z,2736
2018-02-08T10:45:02.472Z,2732
2018-02-08T10:45:27.941Z,2732
2018-02-08T10:45:53.419Z,2732
2018-02-08T10:46:18.849Z,2728
2018-02-08T10:46:44.407Z,2728
2018-02-08T10:47:09.836Z,2728
2018-02-08T10:47:35.244Z,2728
2018-02-08T10:48:00.707Z,2728
2018-02-08T10:48:26.219Z,2724
2018-02-08T10:48:51.634Z,2720
2018-02-08T10:49:17.107Z,2716
2018-02-08T10:49:42.542Z,2712
2018-02-08T10:50:51.307Z,2696
2018-02-08T10:51:16.791Z,2688
2018-02-08T10:51:42.257Z,2692
2018-02-08T10:52:07.791Z,2704
2018-02-08T10:52:33.179Z,2716
2018-02-08T10:52:58.608Z,2728
2018-02-08T10:53:24.061Z,2736
2018-02-08T10:53:49.600Z,2740
2018-02-08T10:54:15.152Z,2736
2018-02-08T10:54:40.526Z,2728
2018-02-08T10:55:05.992Z,2724
2018-02-08T10:55:31.504Z,2720
2018-02-08T10:55:57.193Z,2720
2018-02-08T10:56:22.975Z,2708
2018-02-08T10:56:48.477Z,2692
2018-02-08T10:57:14.539Z,2700
2018-02-08T10:57:40.104Z,2712
2018-02-08T10:58:05.834Z,2708
2018-02-08T10:58:31.098Z,2716
2018-02-08T10:58:56.548Z,2716
2018-02-08T10:59:22.006Z,2720
2018-02-08T10:59:47.602Z,2724
2018-02-08T11:00:13.102Z,2728
2018-02-08T11:00:38.584Z,2728
2018-02-08T11:01:04.008Z,2732
2018-02-08T11:01:29.509Z,2728
2018-02-08T11:01:55.025Z,2728
2018-02-08T11:02:20.499Z,2716
2018-02-08T11:02:45.988Z,2708
2018-02-08T11:03:11.460Z,2704
2018-02-08T11:03:36.882Z,2700
2018-02-08T11:04:02.368Z,2696
2018-02-08T11:04:27.858Z,2696
2018-02-08T11:04:53.281Z,2696
2018-02-08T11:05:18.766Z,2696
2018-02-08T11:05:44.255Z,2700
2018-02-08T11:06:09.720Z,2704
2018-02-08T11:06:35.172Z,2708
2018-02-08T11:07:00.642Z,2712
2018-02-08T11:07:26.133Z,2712
2018-02-08T11:07:51.557Z,2716
2018-02-08T11:08:17.051Z,2716
2018-02-08T11:08:42.552Z,2720
2018-02-08T11:09:08.041Z,2728
2018-02-08T11:09:33.478Z,2724
2018-02-08T11:09:58.932Z,2732
2018-02-08T11:10:24.388Z,2736
2018-02-08T11:10:49.827Z,2740
2018-02-08T11:11:15.316Z,2744
2018-02-08T11:11:40.755Z,2752
2018-02-08T11:12:06.217Z,2752
2018-02-08T11:12:31.657Z,2752
2018-02-08T11:12:57.125Z,2752
2018-02-08T11:13:22.709Z,2748
2018-02-08T11:13:48.003Z,2744
2018-02-08T11:14:13.506Z,2740
2018-02-08T11:14:38.977Z,2736
2018-02-08T11:15:04.519Z,2732
2018-02-08T11:15:29.892Z,2724
2018-02-08T11:15:55.335Z,2724
2018-02-08T11:16:20.763Z,2724
2018-02-08T11:17:24.362Z,2728
2018-02-08T11:17:49.930Z,2732
2018-02-08T11:18:15.308Z,2728
2018-02-08T11:18:40.802Z,2728
2018-02-08T11:19:06.227Z,2732
2018-02-08T11:19:31.686Z,2728
2018-02-08T11:19:57.139Z,2724
2018-02-08T11:20:22.604Z,2716
2018-02-08T11:20:48.243Z,2708
2018-02-08T11:21:13.665Z,2696
2018-02-08T11:21:39.146Z,2680
2018-02-08T11:22:04.646Z,2664
2018-02-08T11:22:30.131Z,2652
2018-02-08T11:22:55.552Z,2656
2018-02-08T11:23:21.035Z,2660